Time;durP1;ratioP1;P1;durP2;ratioP2;P2;SDS_P1;SDS_P2;PMS_P1;PMS_P2;Temp;Humidity;BMP_temperature;BMP_pressure;BME280_temperature;BME280_humidity;BME280_pressure;Samples;Min_cycle;Max_cycle;Signal;HPM_P1;HPM_P2
2022/01/25 00:08:22;;;;;;;57.22;25.12;;;;;;;;;;2344698;57;21045;-75
2022/01/25 00:25:05;;;;;;;56.72;27.45;;;;;;;;;;2344769;57;21033;-74
2022/01/25 00:27:48;;;;;;;56.08;26.30;;;;;;;;;;2344927;57;21046;-74
2022/01/25 00:30:30;;;;;;;58.50;26.58;;;;;;;;;;2344131;57;21042;-76
2022/01/25 00:32:58;;;;;;;53.10;23.40;;;;;;;;;;2344883;57;21050;-76
2022/01/25 00:35:25;;;;;;;61.70;27.23;;;;;;;;;;2344597;57;21553;-76
2022/01/25 00:37:52;;;;;;;57.90;27.23;;;;;;;;;;2590966;53;21058;-76
2022/01/25 00:40:19;;;;;;;60.90;27.80;;;;;;;;;;2343450;57;21097;-76
2022/01/25 00:42:46;;;;;;;63.13;26.37;;;;;;;;;;2344563;57;21626;-75
2022/01/25 00:45:15;;;;;;;56.40;26.33;;;;;;;;;;2344770;57;21054;-74
2022/01/25 00:47:47;;;;;;;57.20;27.08;;;;;;;;;;2344798;57;21402;-76
2022/01/25 00:50:15;;;;;;;62.80;27.37;;;;;;;;;;2344200;57;21493;-76
2022/01/25 00:55:39;;;;;;;57.92;25.35;;;;;;;;;;2257684;57;21309;-75
2022/01/25 00:58:06;;;;;;;58.50;25.77;;;;;;;;;;2345020;57;21300;-75
2022/01/25 01:00:33;;;;;;;60.55;24.33;;;;;;;;;;2344649;57;21088;-74
2022/01/25 01:03:00;;;;;;;62.28;27.48;;;;;;;;;;2344676;57;21026;-74
2022/01/25 01:05:27;;;;;;;59.00;25.70;;;;;;;;;;2591038;53;21038;-74
2022/01/25 01:07:54;;;;;;;65.28;29.75;;;;;;;;;;2591314;53;21050;-74
2022/01/25 01:10:24;;;;;;;63.22;28.10;;;;;;;;;;2344160;57;21082;-74
2022/01/25 01:13:26;;;;;;;60.10;24.02;;;;;;;;;;2344726;57;21038;-74
2022/01/25 01:16:02;;;;;;;61.70;24.92;;;;;;;;;;2344578;57;21101;-75
2022/01/25 01:29:56;;;;;;;54.97;20.77;;;;;;;;;;2344378;57;21034;-75
2022/01/25 01:32:54;;;;;;;62.17;27.17;;;;;;;;;;2344976;57;21034;-76
2022/01/25 01:35:38;;;;;;;65.75;26.40;;;;;;;;;;2344764;57;21089;-75
2022/01/25 01:38:38;;;;;;;72.25;30.02;;;;;;;;;;2345024;57;21101;-75
2022/01/25 01:41:22;;;;;;;79.05;30.37;;;;;;;;;;2343987;57;21212;-76
2022/01/25 01:43:53;;;;;;;58.87;25.37;;;;;;;;;;2345120;57;21652;-75
2022/01/25 01:46:31;;;;;;;70.03;28.98;;;;;;;;;;2344691;57;21093;-76
2022/01/25 01:49:00;;;;;;;69.18;28.52;;;;;;;;;;2344638;57;21342;-75
2022/01/25 01:51:30;;;;;;;71.65;30.73;;;;;;;;;;2343576;57;21037;-75
2022/01/25 01:53:58;;;;;;;77.85;31.12;;;;;;;;;;2344671;57;21106;-75
2022/01/25 01:56:25;;;;;;;76.25;30.15;;;;;;;;;;2344514;57;21042;-76
2022/01/25 01:58:53;;;;;;;74.80;29.80;;;;;;;;;;2344625;57;21529;-75
2022/01/25 02:01:20;;;;;;;77.95;31.73;;;;;;;;;;2344878;57;21577;-75
2022/01/25 02:03:47;;;;;;;79.28;31.23;;;;;;;;;;2344783;57;21039;-75
2022/01/25 02:06:14;;;;;;;78.68;31.42;;;;;;;;;;2344802;57;21062;-76
2022/01/25 02:08:41;;;;;;;76.37;32.30;;;;;;;;;;2345050;57;21117;-76
2022/01/25 02:11:08;;;;;;;83.45;32.60;;;;;;;;;;2591129;53;21022;-74
2022/01/25 02:13:37;;;;;;;94.80;34.22;;;;;;;;;;2344641;57;21639;-75
2022/01/25 02:16:07;;;;;;;91.35;33.38;;;;;;;;;;2344636;57;21168;-75
2022/01/25 02:24:07;;;;;;;83.40;31.35;;;;;;;;;;2344710;57;20970;-76
2022/01/25 02:26:34;;;;;;;84.50;32.72;;;;;;;;;;2344634;57;21533;-76
2022/01/25 02:29:01;;;;;;;93.57;35.78;;;;;;;;;;2344226;57;21054;-76
2022/01/25 02:31:28;;;;;;;95.32;33.97;;;;;;;;;;2344780;57;21054;-76
2022/01/25 02:33:55;;;;;;;87.18;33.72;;;;;;;;;;2344755;57;21608;-76
2022/01/25 02:36:26;;;;;;;81.85;31.87;;;;;;;;;;2345064;57;21152;-76
2022/01/25 02:38:53;;;;;;;94.43;35.67;;;;;;;;;;2343329;57;21086;-76
2022/01/25 02:41:20;;;;;;;88.60;32.72;;;;;;;;;;2344607;57;21046;-76
2022/01/25 02:43:48;;;;;;;100.03;35.17;;;;;;;;;;2344871;57;21046;-75
2022/01/25 02:48:29;;;;;;;99.60;37.05;;;;;;;;;;2343499;57;21136;-76
2022/01/25 02:50:56;;;;;;;103.72;36.05;;;;;;;;;;2344309;57;21038;-76
2022/01/25 02:53:23;;;;;;;89.43;35.22;;;;;;;;;;2344683;57;21129;-76
2022/01/25 02:55:50;;;;;;;103.78;38.28;;;;;;;;;;2590812;53;21058;-76
2022/01/25 02:58:17;;;;;;;101.18;34.58;;;;;;;;;;2590355;53;21037;-76
2022/01/25 03:00:44;;;;;;;91.15;31.95;;;;;;;;;;2344653;57;21061;-76
2022/01/25 03:03:11;;;;;;;92.15;34.38;;;;;;;;;;2344598;57;21631;-76
2022/01/25 03:05:38;;;;;;;91.10;35.38;;;;;;;;;;2344949;57;21038;-75
2022/01/25 03:08:07;;;;;;;98.00;33.97;;;;;;;;;;2344447;57;21038;-74
2022/01/25 03:10:35;;;;;;;93.95;34.13;;;;;;;;;;2344312;57;21098;-74
2022/01/25 03:13:05;;;;;;;94.60;33.10;;;;;;;;;;2344642;57;21046;-74
2022/01/25 03:15:53;;;;;;;101.65;37.67;;;;;;;;;;2591595;52;21106;-75
2022/01/25 03:18:37;;;;;;;91.72;35.72;;;;;;;;;;2345061;57;21038;-75
2022/01/25 03:21:18;;;;;;;99.15;35.92;;;;;;;;;;2344616;57;21049;-75
2022/01/25 03:23:45;;;;;;;117.13;41.30;;;;;;;;;;2591787;53;21094;-75
2022/01/25 03:26:12;;;;;;;104.72;38.58;;;;;;;;;;2344788;57;21106;-75
2022/01/25 03:28:39;;;;;;;107.80;39.42;;;;;;;;;;2591433;53;21042;-75
2022/01/25 03:31:06;;;;;;;99.65;37.80;;;;;;;;;;2344904;57;21054;-75
2022/01/25 03:33:33;;;;;;;100.53;38.13;;;;;;;;;;2344687;57;21046;-75
2022/01/25 03:36:00;;;;;;;104.35;37.45;;;;;;;;;;2344883;57;21061;-74
2022/01/25 03:38:27;;;;;;;105.93;38.17;;;;;;;;;;2344645;57;21556;-75
2022/01/25 03:40:54;;;;;;;102.07;36.83;;;;;;;;;;2590734;53;21098;-75
2022/01/25 03:43:22;;;;;;;104.28;38.10;;;;;;;;;;2343825;57;21048;-75
2022/01/25 03:45:59;;;;;;;115.72;40.40;;;;;;;;;;2344714;57;21022;-74
2022/01/25 03:51:12;;;;;;;99.53;36.58;;;;;;;;;;2551015;53;72141;-83
2022/01/25 03:53:39;;;;;;;104.57;37.25;;;;;;;;;;2321036;58;21044;-81
2022/01/25 03:56:06;;;;;;;110.70;39.95;;;;;;;;;;2321460;58;21662;-81
2022/01/25 03:58:33;;;;;;;104.18;39.40;;;;;;;;;;2320525;58;21766;-83
2022/01/25 04:01:00;;;;;;;89.07;32.97;;;;;;;;;;2344999;57;21053;-84
2022/01/25 04:03:32;;;;;;;97.32;36.80;;;;;;;;;;2347465;57;21042;-82
2022/01/25 04:06:01;;;;;;;111.88;38.83;;;;;;;;;;2348560;57;21129;-83
2022/01/25 04:08:28;;;;;;;112.45;39.72;;;;;;;;;;2596157;53;21053;-83
2022/01/25 04:10:55;;;;;;;113.50;38.80;;;;;;;;;;2348622;57;21042;-84
2022/01/25 04:13:22;;;;;;;113.78;38.58;;;;;;;;;;2596297;53;21097;-83
2022/01/25 04:15:50;;;;;;;109.53;39.53;;;;;;;;;;2348259;57;21122;-82
2022/01/25 04:18:25;;;;;;;106.37;38.45;;;;;;;;;;2348660;57;21064;-83
2022/01/25 04:21:02;;;;;;;108.05;37.83;;;;;;;;;;2595686;53;21041;-82
2022/01/25 04:26:19;;;;;;;105.32;38.25;;;;;;;;;;2306499;57;21117;-81
2022/01/25 04:28:46;;;;;;;99.60;34.78;;;;;;;;;;2595015;53;21140;-82
2022/01/25 04:31:16;;;;;;;102.47;37.60;;;;;;;;;;2348361;57;21041;-82
2022/01/25 04:33:55;;;;;;;111.78;38.80;;;;;;;;;;2348562;57;21685;-81
2022/01/25 04:36:49;;;;;;;106.72;38.45;;;;;;;;;;2596049;53;21053;-82
2022/01/25 04:50:43;;;;;;;95.32;35.67;;;;;;;;;;2347277;57;21537;-80
2022/01/25 04:53:17;;;;;;;100.57;38.45;;;;;;;;;;2594877;53;21097;-80
2022/01/25 04:55:50;;;;;;;98.15;36.22;;;;;;;;;;2347581;57;21132;-80
2022/01/25 04:58:24;;;;;;;93.93;33.67;;;;;;;;;;2594886;53;21128;-78
2022/01/25 05:00:52;;;;;;;109.95;36.88;;;;;;;;;;2594813;53;21046;-79
2022/01/25 05:03:24;;;;;;;102.75;37.85;;;;;;;;;;2347316;57;21121;-79
2022/01/25 05:05:57;;;;;;;100.97;36.40;;;;;;;;;;2347467;57;21057;-80
2022/01/25 05:08:33;;;;;;;103.32;37.13;;;;;;;;;;2595158;53;22100;-78
2022/01/25 05:11:06;;;;;;;93.20;34.85;;;;;;;;;;2593726;53;21053;-80
2022/01/25 05:13:42;;;;;;;101.87;36.25;;;;;;;;;;2593648;53;21108;-82
2022/01/25 05:16:26;;;;;;;102.57;37.50;;;;;;;;;;2345861;57;21111;-79
2022/01/25 05:19:02;;;;;;;94.75;35.50;;;;;;;;;;2345617;57;21065;-81
2022/01/25 05:24:14;;;;;;;101.12;36.92;;;;;;;;;;2345948;57;21021;-80
2022/01/25 05:26:41;;;;;;;100.18;35.60;;;;;;;;;;2593628;53;21494;-79
2022/01/25 05:29:08;;;;;;;83.87;31.08;;;;;;;;;;2594240;53;21062;-80
2022/01/25 05:31:35;;;;;;;100.78;37.03;;;;;;;;;;2347395;57;21058;-79
2022/01/25 05:34:02;;;;;;;106.00;37.47;;;;;;;;;;2346084;57;21037;-81
2022/01/25 05:36:29;;;;;;;111.78;38.78;;;;;;;;;;2347299;57;21152;-80
2022/01/25 05:38:58;;;;;;;102.03;36.97;;;;;;;;;;2347168;57;21316;-81
2022/01/25 05:41:29;;;;;;;114.03;41.37;;;;;;;;;;2594865;53;21114;-80
2022/01/25 05:44:14;;;;;;;110.18;38.25;;;;;;;;;;2347209;57;21056;-80
2022/01/25 05:46:46;;;;;;;99.72;37.35;;;;;;;;;;2594516;53;21102;-80
2022/01/25 05:49:13;;;;;;;90.03;34.60;;;;;;;;;;2347159;57;21125;-80
2022/01/25 05:51:40;;;;;;;102.87;36.45;;;;;;;;;;2594685;53;21117;-81
2022/01/25 05:54:07;;;;;;;92.25;34.60;;;;;;;;;;2594644;53;21025;-81
2022/01/25 05:56:34;;;;;;;104.05;37.47;;;;;;;;;;2348304;57;21133;-81
2022/01/25 05:59:01;;;;;;;112.72;39.35;;;;;;;;;;2348148;57;21625;-80
2022/01/25 06:01:27;;;;;;;102.38;36.47;;;;;;;;;;2347831;57;21637;-77
2022/01/25 06:03:55;;;;;;;103.82;37.72;;;;;;;;;;2347385;57;21696;-82
2022/01/25 06:06:22;;;;;;;97.53;34.88;;;;;;;;;;2596025;53;21045;-82
2022/01/25 06:08:49;;;;;;;109.57;39.33;;;;;;;;;;2348158;57;21045;-83
2022/01/25 06:11:16;;;;;;;115.53;40.20;;;;;;;;;;2348578;57;21053;-82
2022/01/25 06:13:43;;;;;;;115.37;39.10;;;;;;;;;;2348596;57;21104;-82
2022/01/25 06:16:10;;;;;;;115.60;39.30;;;;;;;;;;2348416;57;21034;-83
2022/01/25 06:18:37;;;;;;;107.70;37.60;;;;;;;;;;2348377;57;21121;-82
2022/01/25 06:21:04;;;;;;;101.93;37.53;;;;;;;;;;2348309;57;21109;-82
2022/01/25 06:23:31;;;;;;;110.60;40.30;;;;;;;;;;2595980;53;21117;-83
2022/01/25 06:25:58;;;;;;;99.57;34.80;;;;;;;;;;2348492;57;21153;-82
2022/01/25 06:28:25;;;;;;;107.25;37.47;;;;;;;;;;2348362;57;21140;-84
2022/01/25 06:30:52;;;;;;;103.00;38.00;;;;;;;;;;2348396;57;21176;-82
2022/01/25 06:33:19;;;;;;;103.00;36.60;;;;;;;;;;2348693;57;21121;-82
2022/01/25 06:35:46;;;;;;;107.95;37.75;;;;;;;;;;2595751;53;21129;-83
2022/01/25 06:38:14;;;;;;;113.25;39.42;;;;;;;;;;2595942;53;21401;-82
2022/01/25 06:40:41;;;;;;;103.05;37.20;;;;;;;;;;2595643;53;21108;-83
2022/01/25 06:43:07;;;;;;;97.68;37.33;;;;;;;;;;2348667;57;21041;-83
2022/01/25 06:45:39;;;;;;;119.45;39.42;;;;;;;;;;2595938;53;21045;-83
2022/01/25 06:48:06;;;;;;;102.93;39.35;;;;;;;;;;2595972;53;21097;-82
2022/01/25 06:50:34;;;;;;;101.25;37.53;;;;;;;;;;2595989;53;21062;-83
2022/01/25 06:53:01;;;;;;;109.90;37.80;;;;;;;;;;2348684;57;21136;-84
2022/01/25 06:55:28;;;;;;;105.72;37.85;;;;;;;;;;2348645;57;21132;-82
2022/01/25 06:57:55;;;;;;;110.20;40.50;;;;;;;;;;2348828;57;21038;-83
2022/01/25 07:00:23;;;;;;;105.80;38.88;;;;;;;;;;2596206;53;21117;-83
2022/01/25 07:02:50;;;;;;;98.37;38.60;;;;;;;;;;2596297;53;21116;-82
2022/01/25 07:05:17;;;;;;;113.15;38.90;;;;;;;;;;2348498;57;21132;-83
2022/01/25 07:07:46;;;;;;;111.28;39.50;;;;;;;;;;2348819;57;21053;-83
2022/01/25 07:10:13;;;;;;;112.50;41.13;;;;;;;;;;2595952;53;21082;-82
2022/01/25 07:12:40;;;;;;;109.50;39.10;;;;;;;;;;2596240;53;21058;-83
2022/01/25 07:15:08;;;;;;;115.68;39.10;;;;;;;;;;2596023;53;21136;-82
2022/01/25 07:17:35;;;;;;;90.38;33.95;;;;;;;;;;2348568;57;21042;-81
2022/01/25 07:20:04;;;;;;;116.65;39.90;;;;;;;;;;2596105;53;21042;-82
2022/01/25 07:22:31;;;;;;;99.72;37.42;;;;;;;;;;2596076;53;21060;-83
2022/01/25 07:24:58;;;;;;;112.28;39.97;;;;;;;;;;2348517;57;21065;-82
2022/01/25 07:27:24;;;;;;;116.78;41.30;;;;;;;;;;2348577;57;21208;-82
2022/01/25 07:29:51;;;;;;;101.53;36.28;;;;;;;;;;2595906;53;21145;-83
2022/01/25 07:32:18;;;;;;;101.72;36.53;;;;;;;;;;2596261;53;21102;-84
2022/01/25 07:34:45;;;;;;;100.72;37.78;;;;;;;;;;2347875;57;21045;-82
2022/01/25 07:37:12;;;;;;;108.20;38.55;;;;;;;;;;2348389;57;21128;-83
2022/01/25 07:39:41;;;;;;;106.68;36.88;;;;;;;;;;2348365;57;21199;-82
2022/01/25 07:42:09;;;;;;;105.25;39.28;;;;;;;;;;2348621;57;21057;-83
2022/01/25 07:44:38;;;;;;;109.05;40.25;;;;;;;;;;2348312;57;21041;-83
2022/01/25 07:47:06;;;;;;;98.62;36.47;;;;;;;;;;2595972;53;21062;-81
2022/01/25 07:49:34;;;;;;;99.13;35.78;;;;;;;;;;2348399;57;21117;-82
2022/01/25 07:52:00;;;;;;;107.57;37.05;;;;;;;;;;2348529;57;21137;-83
2022/01/25 07:54:27;;;;;;;102.85;34.60;;;;;;;;;;2347968;57;21109;-82
2022/01/25 07:56:54;;;;;;;108.78;39.25;;;;;;;;;;2595819;53;21128;-82
2022/01/25 07:59:22;;;;;;;90.55;33.08;;;;;;;;;;2348439;57;21549;-82
2022/01/25 08:01:49;;;;;;;92.45;36.03;;;;;;;;;;2348650;57;21542;-84
2022/01/25 08:04:16;;;;;;;114.72;37.78;;;;;;;;;;2348625;57;21144;-82
2022/01/25 08:06:43;;;;;;;114.72;39.05;;;;;;;;;;2348664;57;21053;-85
2022/01/25 08:09:10;;;;;;;98.53;36.70;;;;;;;;;;2348344;57;21065;-83
2022/01/25 08:11:37;;;;;;;105.07;38.35;;;;;;;;;;2596098;53;21030;-83
2022/01/25 08:14:12;;;;;;;109.20;38.47;;;;;;;;;;2348588;57;21058;-81
2022/01/25 08:16:40;;;;;;;95.47;36.28;;;;;;;;;;2348572;57;21046;-83
2022/01/25 08:19:07;;;;;;;99.87;37.38;;;;;;;;;;2347944;57;21108;-82
2022/01/25 08:21:36;;;;;;;105.60;37.55;;;;;;;;;;2348436;57;21558;-82
2022/01/25 08:24:03;;;;;;;105.95;37.75;;;;;;;;;;2347863;57;21065;-81
2022/01/25 08:26:30;;;;;;;95.65;34.40;;;;;;;;;;2595177;53;21105;-80
2022/01/25 08:28:57;;;;;;;100.00;37.25;;;;;;;;;;2347450;57;21053;-80
2022/01/25 08:31:24;;;;;;;122.53;39.85;;;;;;;;;;2347723;57;21148;-81
2022/01/25 08:33:52;;;;;;;107.15;39.08;;;;;;;;;;2348293;57;21200;-83
2022/01/25 08:36:19;;;;;;;104.32;37.63;;;;;;;;;;2596033;53;21356;-83
2022/01/25 08:38:46;;;;;;;98.22;36.28;;;;;;;;;;2594533;53;21037;-78
2022/01/25 08:41:14;;;;;;;98.03;36.10;;;;;;;;;;2593780;53;21046;-82
2022/01/25 08:43:41;;;;;;;91.90;34.13;;;;;;;;;;2594280;53;21030;-80
2022/01/25 08:46:07;;;;;;;92.28;32.53;;;;;;;;;;2347584;57;21097;-80
2022/01/25 08:48:34;;;;;;;103.15;35.45;;;;;;;;;;2347201;57;21641;-81
2022/01/25 08:51:01;;;;;;;96.72;34.70;;;;;;;;;;2594545;53;21558;-81
2022/01/25 08:53:28;;;;;;;80.43;31.50;;;;;;;;;;2594914;53;21038;-81
2022/01/25 08:55:55;;;;;;;91.55;33.60;;;;;;;;;;2347365;57;21065;-81
2022/01/25 08:58:22;;;;;;;81.28;31.90;;;;;;;;;;2594493;53;21053;-81
2022/01/25 09:00:49;;;;;;;77.03;30.80;;;;;;;;;;2348019;57;21057;-82
2022/01/25 09:03:16;;;;;;;81.65;31.02;;;;;;;;;;2348173;57;21052;-81
2022/01/25 09:05:43;;;;;;;95.20;33.45;;;;;;;;;;2595404;53;21578;-81
2022/01/25 09:08:16;;;;;;;81.40;31.33;;;;;;;;;;2347270;57;21266;-81
2022/01/25 09:10:43;;;;;;;89.45;33.40;;;;;;;;;;2594578;53;21065;-81
2022/01/25 09:13:10;;;;;;;76.60;29.58;;;;;;;;;;2347366;57;21049;-80
2022/01/25 09:15:37;;;;;;;92.90;33.97;;;;;;;;;;2594752;53;21108;-81
2022/01/25 09:18:04;;;;;;;67.32;26.67;;;;;;;;;;2347009;57;21112;-82
2022/01/25 09:20:31;;;;;;;73.45;27.65;;;;;;;;;;2347404;57;21628;-82
2022/01/25 09:22:58;;;;;;;77.97;31.15;;;;;;;;;;2347344;57;21677;-82
2022/01/25 09:25:25;;;;;;;82.85;31.67;;;;;;;;;;2347392;57;21554;-80
2022/01/25 09:27:52;;;;;;;89.45;33.22;;;;;;;;;;2347558;57;21046;-80
2022/01/25 09:30:19;;;;;;;76.32;27.75;;;;;;;;;;2345148;57;21610;-84
2022/01/25 09:32:46;;;;;;;70.65;29.17;;;;;;;;;;2348188;57;21129;-83
2022/01/25 09:35:13;;;;;;;70.47;29.48;;;;;;;;;;2347826;57;21113;-83
2022/01/25 09:37:40;;;;;;;61.08;26.00;;;;;;;;;;2595915;53;21045;-83
2022/01/25 09:40:09;;;;;;;72.47;28.12;;;;;;;;;;2347770;57;21092;-83
2022/01/25 09:42:36;;;;;;;68.03;27.50;;;;;;;;;;2348469;57;21148;-82
2022/01/25 09:45:04;;;;;;;68.40;27.65;;;;;;;;;;2595318;53;21056;-83
2022/01/25 09:47:31;;;;;;;65.82;26.33;;;;;;;;;;2348133;57;21104;-82
2022/01/25 09:49:58;;;;;;;64.68;24.67;;;;;;;;;;2529225;52;70279;-76
2022/01/25 09:52:27;;;;;;;60.00;23.67;;;;;;;;;;2347255;57;21097;-75
2022/01/25 09:54:55;;;;;;;66.07;25.40;;;;;;;;;;2593553;53;21118;-75
2022/01/25 09:57:22;;;;;;;60.42;24.50;;;;;;;;;;2346306;57;21144;-74
2022/01/25 09:59:49;;;;;;;62.38;25.10;;;;;;;;;;2343844;57;21042;-75
2022/01/25 10:02:36;;;;;;;72.97;27.08;;;;;;;;;;2342698;57;21137;-78
2022/01/25 10:05:15;;;;;;;61.45;26.30;;;;;;;;;;2343070;57;21568;-76
2022/01/25 10:07:42;;;;;;;59.15;23.75;;;;;;;;;;2590381;53;21042;-75
2022/01/25 10:10:10;;;;;;;68.03;27.30;;;;;;;;;;2589683;53;21113;-76
2022/01/25 10:12:37;;;;;;;61.30;27.23;;;;;;;;;;2341648;57;21066;-75
2022/01/25 10:15:10;;;;;;;56.08;23.52;;;;;;;;;;2344310;57;21026;-75
2022/01/25 10:17:37;;;;;;;62.22;26.02;;;;;;;;;;2593033;53;21611;-74
2022/01/25 10:20:05;;;;;;;61.33;25.12;;;;;;;;;;2592376;53;21133;-75
2022/01/25 10:22:42;;;;;;;52.00;21.67;;;;;;;;;;2344452;57;21046;-75
2022/01/25 10:25:09;;;;;;;57.35;23.12;;;;;;;;;;2344936;57;21529;-75
2022/01/25 10:27:59;;;;;;;59.47;25.10;;;;;;;;;;2345907;57;21049;-77
2022/01/25 10:30:26;;;;;;;65.82;26.58;;;;;;;;;;2345481;57;21098;-80
2022/01/25 10:32:53;;;;;;;69.47;27.05;;;;;;;;;;2592602;53;21108;-78
2022/01/25 10:35:20;;;;;;;61.03;25.75;;;;;;;;;;2345091;57;21591;-80
2022/01/25 10:37:48;;;;;;;63.30;25.23;;;;;;;;;;2343892;57;21129;-77
2022/01/25 10:40:15;;;;;;;70.30;28.65;;;;;;;;;;2590377;53;21087;-76
2022/01/25 10:42:47;;;;;;;59.15;24.10;;;;;;;;;;2345778;57;21110;-75
2022/01/25 10:45:17;;;;;;;57.67;23.70;;;;;;;;;;2345601;57;21053;-75
2022/01/25 10:47:46;;;;;;;62.50;25.55;;;;;;;;;;2592812;53;21070;-76
2022/01/25 10:50:15;;;;;;;58.65;24.75;;;;;;;;;;2345628;57;21106;-75
2022/01/25 10:52:42;;;;;;;73.25;25.67;;;;;;;;;;2345884;57;21113;-75
2022/01/25 10:55:11;;;;;;;57.78;23.60;;;;;;;;;;2345877;57;21070;-75
2022/01/25 10:57:38;;;;;;;62.92;25.42;;;;;;;;;;2345964;57;21058;-75
2022/01/25 11:00:09;;;;;;;63.08;25.45;;;;;;;;;;2345542;57;21098;-75
2022/01/25 11:02:37;;;;;;;57.45;23.23;;;;;;;;;;2345542;57;21688;-77
2022/01/25 11:05:08;;;;;;;68.87;26.87;;;;;;;;;;2345698;57;21204;-76
2022/01/25 11:07:39;;;;;;;69.47;25.77;;;;;;;;;;2345489;57;21608;-76
2022/01/25 11:10:07;;;;;;;52.88;22.70;;;;;;;;;;2592464;53;21034;-76
2022/01/25 11:12:39;;;;;;;51.37;21.48;;;;;;;;;;2345700;57;21330;-77
2022/01/25 11:15:07;;;;;;;56.78;22.90;;;;;;;;;;2345957;57;21121;-77
2022/01/25 11:17:34;;;;;;;53.92;21.70;;;;;;;;;;2592912;53;21105;-76
2022/01/25 11:20:02;;;;;;;58.30;22.50;;;;;;;;;;2592258;53;21076;-76
2022/01/25 11:22:29;;;;;;;59.70;23.50;;;;;;;;;;2345738;57;21098;-75
2022/01/25 11:24:58;;;;;;;58.72;23.10;;;;;;;;;;2345704;57;21034;-76
2022/01/25 11:27:27;;;;;;;48.30;20.17;;;;;;;;;;2345634;57;21101;-76
2022/01/25 11:29:57;;;;;;;48.92;21.60;;;;;;;;;;2345148;57;21639;-78
2022/01/25 11:32:25;;;;;;;59.70;23.58;;;;;;;;;;2345983;57;21057;-76
2022/01/25 11:34:53;;;;;;;56.40;23.42;;;;;;;;;;2346034;57;21034;-77
2022/01/25 11:37:21;;;;;;;55.83;23.92;;;;;;;;;;2593198;53;21565;-78
2022/01/25 11:39:49;;;;;;;58.47;25.12;;;;;;;;;;2345573;57;21034;-75
2022/01/25 11:42:17;;;;;;;58.20;25.05;;;;;;;;;;2345834;57;21090;-75
2022/01/25 11:44:49;;;;;;;56.97;22.92;;;;;;;;;;2345475;57;21042;-76
2022/01/25 11:47:17;;;;;;;57.33;23.50;;;;;;;;;;2343902;57;21018;-75
2022/01/25 11:49:52;;;;;;;61.05;24.20;;;;;;;;;;2345063;57;21054;-76
2022/01/25 11:52:19;;;;;;;50.63;19.83;;;;;;;;;;2344179;57;21137;-77
2022/01/25 11:54:46;;;;;;;51.17;22.45;;;;;;;;;;2345314;57;21560;-77
2022/01/25 11:57:14;;;;;;;51.58;22.80;;;;;;;;;;2343821;57;21038;-77
2022/01/25 11:59:42;;;;;;;56.00;21.52;;;;;;;;;;2344622;57;21098;-77
2022/01/25 12:02:10;;;;;;;50.50;20.62;;;;;;;;;;2592400;53;21556;-76
2022/01/25 12:04:37;;;;;;;55.95;23.42;;;;;;;;;;2591600;53;21588;-75
2022/01/25 12:07:23;;;;;;;50.15;21.58;;;;;;;;;;2345388;57;21043;-77
2022/01/25 12:10:02;;;;;;;58.53;22.25;;;;;;;;;;2344774;57;21062;-75
2022/01/25 12:12:29;;;;;;;49.10;20.62;;;;;;;;;;2345447;57;21188;-75
2022/01/25 12:14:56;;;;;;;51.33;20.98;;;;;;;;;;2345430;57;21825;-78
2022/01/25 12:17:24;;;;;;;48.75;20.35;;;;;;;;;;2344913;57;21034;-75
2022/01/25 12:19:53;;;;;;;46.90;20.27;;;;;;;;;;2341305;57;21030;-78
2022/01/25 12:22:36;;;;;;;52.35;20.35;;;;;;;;;;2594113;53;21121;-78
2022/01/25 12:25:08;;;;;;;49.60;20.25;;;;;;;;;;2593539;53;21038;-79
2022/01/25 12:27:43;;;;;;;49.47;20.60;;;;;;;;;;2347576;57;21121;-76
2022/01/25 12:30:12;;;;;;;44.50;17.62;;;;;;;;;;2346917;57;21133;-79
2022/01/25 12:32:48;;;;;;;40.88;17.70;;;;;;;;;;2595020;53;21054;-79
2022/01/25 12:35:16;;;;;;;45.63;19.05;;;;;;;;;;2346900;57;22178;-79
2022/01/25 12:38:02;;;;;;;41.28;19.30;;;;;;;;;;2346976;57;21038;-78
2022/01/25 12:40:49;;;;;;;43.28;17.83;;;;;;;;;;2346987;57;21532;-78
2022/01/25 12:43:18;;;;;;;44.90;19.65;;;;;;;;;;2594354;53;21516;-77
2022/01/25 12:45:47;;;;;;;42.17;19.30;;;;;;;;;;2347377;57;21038;-78
2022/01/25 12:48:15;;;;;;;40.53;17.48;;;;;;;;;;2593936;53;21121;-77
2022/01/25 12:50:43;;;;;;;47.45;18.87;;;;;;;;;;2593187;53;21085;-78
2022/01/25 12:53:11;;;;;;;50.38;20.55;;;;;;;;;;2346910;57;21042;-78
2022/01/25 12:55:39;;;;;;;44.03;18.33;;;;;;;;;;2347180;57;21110;-78
2022/01/25 12:58:08;;;;;;;45.10;17.85;;;;;;;;;;2346447;57;21104;-78
2022/01/25 13:00:37;;;;;;;49.85;19.62;;;;;;;;;;2342670;57;21026;-74
2022/01/25 13:03:22;;;;;;;47.83;20.23;;;;;;;;;;2592280;53;21050;-78
2022/01/25 13:05:50;;;;;;;51.20;19.62;;;;;;;;;;2592421;53;21058;-79
2022/01/25 13:08:26;;;;;;;50.10;21.60;;;;;;;;;;2595383;53;21604;-75
2022/01/25 13:10:56;;;;;;;44.42;18.33;;;;;;;;;;2594329;53;21105;-78
2022/01/25 13:13:30;;;;;;;42.25;17.40;;;;;;;;;;2596579;53;21034;-78
2022/01/25 13:20:34;;;;;;;39.30;16.95;;;9.80;74.80;;;;;;2369087;56;24597;-77
2022/01/25 13:23:01;;;;;;;42.90;16.27;;;9.20;76.50;;;;;;2375346;56;21110;-80
2022/01/25 13:25:33;;;;;;;40.03;16.65;;;9.20;77.70;;;;;;2375686;56;21534;-82
2022/01/25 13:28:13;;;;;;;42.15;18.75;;;9.20;77.30;;;;;;2630750;52;21208;-82
2022/01/25 13:33:17;;;;;;;47.90;23.65;;;9.30;77.20;;;;;;2336320;57;28066;-75
2022/01/25 13:35:49;;;;;;;39.38;18.33;;;9.20;78.60;;;;;;2595533;53;21037;-78
2022/01/25 13:38:20;;;;;;;42.13;19.10;;;9.30;77.80;;;;;;2347933;57;21124;-77
2022/01/25 13:40:51;;;;;;;39.10;16.30;;;9.40;76.90;;;;;;2346754;57;21053;-78
2022/01/25 13:46:18;;;;;;;33.13;15.77;;;9.40;76.20;;;;;;2533092;53;21038;-78
2022/01/25 13:48:46;;;;;;;39.85;16.40;;;9.40;76.20;;;;;;2593471;53;21046;-78
2022/01/25 13:51:16;;;;;;;45.38;18.10;;;9.40;76.10;;;;;;2347144;57;21086;-81
2022/01/25 13:53:49;;;;;;;42.78;17.80;;;9.40;76.00;;;;;;2594314;53;21026;-80
2022/01/25 13:56:17;;;;;;;43.15;18.08;;;9.40;76.00;;;;;;2594394;53;21046;-80
2022/01/25 13:58:47;;;;;;;39.95;18.00;;;9.40;76.10;;;;;;2346666;57;21050;-78
2022/01/25 14:01:17;;;;;;;41.45;17.42;;;9.40;76.20;;;;;;2594205;53;21022;-80
2022/01/25 14:03:52;;;;;;;44.55;18.62;;;9.40;76.40;;;;;;2594561;52;21064;-79
2022/01/25 14:06:25;;;;;;;46.60;20.65;;;9.40;76.40;;;;;;2346839;57;21053;-79
2022/01/25 14:08:54;;;;;;;39.20;16.73;;;9.30;76.40;;;;;;2593957;53;21512;-80
2022/01/25 14:11:28;;;;;;;39.17;18.00;;;9.40;76.20;;;;;;2594343;53;21552;-80
2022/01/25 14:22:33;;;;;;;42.13;15.32;;;9.30;75.80;;;;;;2347077;57;21314;-77
2022/01/25 14:25:01;;;;;;;35.53;14.73;;;9.30;76.00;;;;;;2594007;52;21125;-77
2022/01/25 14:27:32;;;;;;;38.17;15.80;;;9.30;76.30;;;;;;2594169;52;21042;-80
2022/01/25 14:29:59;;;;;;;34.25;14.52;;;9.20;76.60;;;;;;2593801;53;21121;-78
2022/01/25 14:32:32;;;;;;;33.78;14.63;;;9.30;76.80;;;;;;2346755;57;21077;-80
2022/01/25 14:35:04;;;;;;;36.75;15.50;;;9.20;76.90;;;;;;2347558;57;21113;-79
2022/01/25 14:37:32;;;;;;;31.80;13.65;;;9.20;77.00;;;;;;2346758;57;21054;-78
2022/01/25 14:40:09;;;;;;;44.47;17.52;;;9.20;76.80;;;;;;2593371;53;21066;-79
2022/01/25 14:42:38;;;;;;;31.77;13.75;;;9.20;76.70;;;;;;2346598;57;21053;-78
2022/01/25 14:45:12;;;;;;;39.42;16.23;;;9.20;76.80;;;;;;2345252;57;21054;-78
2022/01/25 14:47:45;;;;;;;36.95;14.63;;;9.10;76.90;;;;;;2345910;57;21114;-79
2022/01/25 14:50:18;;;;;;;31.60;14.23;;;9.10;77.00;;;;;;2345321;57;21061;-77
2022/01/25 14:53:05;;;;;;;32.95;14.00;;;9.10;76.90;;;;;;2593160;53;21116;-79
2022/01/25 14:55:33;;;;;;;31.30;13.65;;;9.10;77.10;;;;;;2592785;53;21528;-79
2022/01/25 14:58:22;;;;;;;35.17;15.20;;;9.10;77.10;;;;;;2346208;57;21045;-77
2022/01/25 15:00:50;;;;;;;32.08;12.50;;;9.10;77.30;;;;;;2345403;57;21074;-76
2022/01/25 15:03:19;;;;;;;44.78;15.68;;;9.10;77.20;;;;;;2591749;53;21101;-78
2022/01/25 15:05:47;;;;;;;33.92;14.55;;;9.10;77.20;;;;;;2592522;53;21074;-78
2022/01/25 15:08:15;;;;;;;32.40;13.70;;;9.10;77.20;;;;;;2593257;53;21125;-80
2022/01/25 15:10:45;;;;;;;38.08;15.38;;;9.10;77.30;;;;;;2346034;57;21113;-80
2022/01/25 15:13:22;;;;;;;31.95;14.13;;;9.00;77.20;;;;;;2592648;53;21384;-78
2022/01/25 15:15:55;;;;;;;27.60;12.75;;;9.00;77.30;;;;;;2345611;57;21325;-78
2022/01/25 15:18:24;;;;;;;29.48;13.05;;;9.00;77.20;;;;;;2592337;52;21125;-77
2022/01/25 15:20:52;;;;;;;29.08;12.63;;;9.10;77.20;;;;;;2344897;57;21046;-78
2022/01/25 15:23:21;;;;;;;33.70;12.75;;;9.00;77.20;;;;;;2345739;57;21184;-78
2022/01/25 15:25:54;;;;;;;32.03;13.95;;;9.00;77.00;;;;;;2345470;57;21041;-77
2022/01/25 15:28:21;;;;;;;35.40;13.95;;;9.00;77.10;;;;;;2346081;57;21116;-78
2022/01/25 15:30:49;;;;;;;26.17;12.10;;;9.00;77.20;;;;;;2592184;53;21050;-76
2022/01/25 15:33:17;;;;;;;31.58;13.82;;;8.90;77.40;;;;;;2591493;53;21037;-78